sensor_id;sensor_type;location;lat;lon;timestamp;pressure;altitude;pressure_sealevel;temperature;humidity
80654;BME280;70020;45.524;10.240;2023-11-21T00:00:13;99638.75;;;17.86;43.86
80654;BME280;70020;45.524;10.240;2023-11-21T00:02:40;99640.41;;;17.79;43.15
80654;BME280;70020;45.524;10.240;2023-11-21T00:05:10;99647.28;;;17.96;43.38
80654;BME280;70020;45.524;10.240;2023-11-21T00:07:37;99641.03;;;17.97;43.68
80654;BME280;70020;45.524;10.240;2023-11-21T00:10:03;99637.09;;;18.01;44.07
80654;BME280;70020;45.524;10.240;2023-11-21T00:12:30;99648.06;;;17.96;44.80
80654;BME280;70020;45.524;10.240;2023-11-21T00:14:57;99624.88;;;17.93;44.76
80654;BME280;70020;45.524;10.240;2023-11-21T00:17:23;99622.06;;;17.95;44.74
80654;BME280;70020;45.524;10.240;2023-11-21T00:19:48;99616.81;;;17.87;44.78
80654;BME280;70020;45.524;10.240;2023-11-21T00:22:14;99619.59;;;17.77;45.00
80654;BME280;70020;45.524;10.240;2023-11-21T00:24:41;99617.34;;;17.74;44.67
80654;BME280;70020;45.524;10.240;2023-11-21T00:27:07;99619.97;;;17.74;44.75
80654;BME280;70020;45.524;10.240;2023-11-21T00:29:33;99625.66;;;17.78;44.90
80654;BME280;70020;45.524;10.240;2023-11-21T00:31:59;99626.00;;;17.75;45.04
80654;BME280;70020;45.524;10.240;2023-11-21T00:34:25;99626.50;;;17.86;45.43
80654;BME280;70020;45.524;10.240;2023-11-21T00:36:51;99624.19;;;17.75;45.16
80654;BME280;70020;45.524;10.240;2023-11-21T00:39:17;99638.28;;;17.74;45.25
80654;BME280;70020;45.524;10.240;2023-11-21T00:41:43;99643.16;;;17.77;45.70
80654;BME280;70020;45.524;10.240;2023-11-21T00:44:10;99641.38;;;17.78;45.67
80654;BME280;70020;45.524;10.240;2023-11-21T00:46:36;99635.81;;;17.81;44.73
80654;BME280;70020;45.524;10.240;2023-11-21T00:49:02;99630.09;;;17.85;44.80
80654;BME280;70020;45.524;10.240;2023-11-21T00:51:29;99628.94;;;17.88;46.11
80654;BME280;70020;45.524;10.240;2023-11-21T00:53:55;99631.06;;;17.68;45.68
80654;BME280;70020;45.524;10.240;2023-11-21T00:56:21;99619.97;;;17.74;44.89
80654;BME280;70020;45.524;10.240;2023-11-21T00:58:47;99623.22;;;17.76;44.85
80654;BME280;70020;45.524;10.240;2023-11-21T01:01:17;99611.78;;;17.85;45.66
80654;BME280;70020;45.524;10.240;2023-11-21T01:03:46;99606.84;;;17.82;46.01
80654;BME280;70020;45.524;10.240;2023-11-21T01:06:11;99609.31;;;17.84;46.17
80654;BME280;70020;45.524;10.240;2023-11-21T01:08:37;99613.06;;;17.89;46.04
80654;BME280;70020;45.524;10.240;2023-11-21T01:11:04;99606.22;;;17.88;46.69
80654;BME280;70020;45.524;10.240;2023-11-21T01:13:34;99600.16;;;17.96;46.46
80654;BME280;70020;45.524;10.240;2023-11-21T01:16:00;99597.53;;;17.80;45.68
80654;BME280;70020;45.524;10.240;2023-11-21T01:18:26;99603.56;;;17.96;46.50
80654;BME280;70020;45.524;10.240;2023-11-21T01:20:52;99605.06;;;17.91;46.57
80654;BME280;70020;45.524;10.240;2023-11-21T01:23:19;99598.84;;;18.00;46.19
80654;BME280;70020;45.524;10.240;2023-11-21T01:25:45;99598.34;;;17.96;46.29
80654;BME280;70020;45.524;10.240;2023-11-21T01:28:11;99601.13;;;17.87;46.40
80654;BME280;70020;45.524;10.240;2023-11-21T01:30:37;99600.31;;;17.78;46.24
80654;BME280;70020;45.524;10.240;2023-11-21T01:33:02;99600.97;;;17.88;46.78
80654;BME280;70020;45.524;10.240;2023-11-21T01:35:29;99605.22;;;17.89;47.26
80654;BME280;70020;45.524;10.240;2023-11-21T01:37:55;99598.38;;;17.88;46.36
80654;BME280;70020;45.524;10.240;2023-11-21T01:40:25;99604.88;;;17.84;46.98
80654;BME280;70020;45.524;10.240;2023-11-21T01:42:53;99598.69;;;17.93;47.08
80654;BME280;70020;45.524;10.240;2023-11-21T01:45:18;99599.84;;;17.91;46.84
80654;BME280;70020;45.524;10.240;2023-11-21T01:47:45;99593.13;;;17.88;46.76
80654;BME280;70020;45.524;10.240;2023-11-21T01:50:15;99588.69;;;17.97;47.10
80654;BME280;70020;45.524;10.240;2023-11-21T01:52:46;99580.53;;;17.76;47.18
80654;BME280;70020;45.524;10.240;2023-11-21T01:55:14;99574.97;;;17.79;47.54
80654;BME280;70020;45.524;10.240;2023-11-21T01:57:43;99572.84;;;17.66;47.18
80654;BME280;70020;45.524;10.240;2023-11-21T02:00:10;99573.97;;;17.80;47.22
80654;BME280;70020;45.524;10.240;2023-11-21T02:02:47;99571.69;;;17.85;46.89
80654;BME280;70020;45.524;10.240;2023-11-21T02:05:14;99574.94;;;17.95;47.21
80654;BME280;70020;45.524;10.240;2023-11-21T02:07:47;99565.94;;;17.97;47.44
80654;BME280;70020;45.524;10.240;2023-11-21T02:10:14;99575.78;;;17.95;47.92
80654;BME280;70020;45.524;10.240;2023-11-21T02:12:40;99569.03;;;18.01;47.71
80654;BME280;70020;45.524;10.240;2023-11-21T02:15:08;99564.16;;;17.98;47.37
80654;BME280;70020;45.524;10.240;2023-11-21T02:17:41;99561.53;;;17.90;47.23
80654;BME280;70020;45.524;10.240;2023-11-21T02:20:12;99565.81;;;17.91;47.34
80654;BME280;70020;45.524;10.240;2023-11-21T02:22:41;99559.38;;;18.01;47.67
80654;BME280;70020;45.524;10.240;2023-11-21T02:25:08;99550.56;;;18.02;47.43
80654;BME280;70020;45.524;10.240;2023-11-21T02:27:34;99552.34;;;18.02;47.71
80654;BME280;70020;45.524;10.240;2023-11-21T02:29:59;99551.22;;;17.96;47.10
80654;BME280;70020;45.524;10.240;2023-11-21T02:32:26;99545.97;;;17.96;47.87
80654;BME280;70020;45.524;10.240;2023-11-21T02:34:52;99549.59;;;17.87;48.82
80654;BME280;70020;45.524;10.240;2023-11-21T02:37:18;99542.25;;;17.83;49.18
80654;BME280;70020;45.524;10.240;2023-11-21T02:39:45;99536.38;;;17.81;48.97
80654;BME280;70020;45.524;10.240;2023-11-21T02:42:12;99536.88;;;17.68;49.28
80654;BME280;70020;45.524;10.240;2023-11-21T02:44:38;99526.59;;;17.66;49.27
80654;BME280;70020;45.524;10.240;2023-11-21T02:47:04;99520.16;;;17.77;48.68
80654;BME280;70020;45.524;10.240;2023-11-21T02:49:30;99521.16;;;17.68;46.86
80654;BME280;70020;45.524;10.240;2023-11-21T02:51:57;99522.66;;;17.38;47.38
80654;BME280;70020;45.524;10.240;2023-11-21T02:54:22;99519.22;;;17.54;47.33
80654;BME280;70020;45.524;10.240;2023-11-21T02:56:49;99516.75;;;17.68;46.75
80654;BME280;70020;45.524;10.240;2023-11-21T02:59:15;99518.53;;;17.84;46.79
80654;BME280;70020;45.524;10.240;2023-11-21T03:01:41;99512.31;;;17.85;47.46
80654;BME280;70020;45.524;10.240;2023-11-21T03:04:08;99508.22;;;17.83;47.60
80654;BME280;70020;45.524;10.240;2023-11-21T03:06:34;99509.06;;;17.83;48.23
80654;BME280;70020;45.524;10.240;2023-11-21T03:09:00;99504.28;;;17.87;48.40
80654;BME280;70020;45.524;10.240;2023-11-21T03:11:26;99507.41;;;17.82;48.38
80654;BME280;70020;45.524;10.240;2023-11-21T03:13:52;99500.19;;;18.00;48.27
80654;BME280;70020;45.524;10.240;2023-11-21T03:16:18;99501.47;;;17.96;48.76
80654;BME280;70020;45.524;10.240;2023-11-21T03:18:44;99496.44;;;17.95;49.09
80654;BME280;70020;45.524;10.240;2023-11-21T03:21:10;99494.50;;;17.81;47.50
80654;BME280;70020;45.524;10.240;2023-11-21T03:23:36;99494.81;;;17.78;47.20
80654;BME280;70020;45.524;10.240;2023-11-21T03:26:03;99490.09;;;17.81;46.19
80654;BME280;70020;45.524;10.240;2023-11-21T03:28:29;99490.72;;;17.83;45.57
80654;BME280;70020;45.524;10.240;2023-11-21T03:30:55;99482.88;;;17.75;45.65
80654;BME280;70020;45.524;10.240;2023-11-21T03:33:21;99489.59;;;17.78;46.09
80654;BME280;70020;45.524;10.240;2023-11-21T03:35:47;99484.84;;;17.81;45.95
80654;BME280;70020;45.524;10.240;2023-11-21T03:38:13;99492.34;;;17.84;46.55
80654;BME280;70020;45.524;10.240;2023-11-21T03:40:39;99491.19;;;17.87;46.32
80654;BME280;70020;45.524;10.240;2023-11-21T03:43:05;99492.19;;;17.86;46.10
80654;BME280;70020;45.524;10.240;2023-11-21T03:45:32;99492.34;;;17.84;46.15
80654;BME280;70020;45.524;10.240;2023-11-21T03:47:58;99490.09;;;17.81;47.53
80654;BME280;70020;45.524;10.240;2023-11-21T03:50:25;99498.25;;;17.86;47.29
80654;BME280;70020;45.524;10.240;2023-11-21T03:52:51;99507.59;;;17.73;47.53
80654;BME280;70020;45.524;10.240;2023-11-21T03:55:17;99500.41;;;17.58;46.93
80654;BME280;70020;45.524;10.240;2023-11-21T03:57:43;99504.34;;;17.62;47.80
80654;BME280;70020;45.524;10.240;2023-11-21T04:00:09;99499.78;;;17.56;47.20
80654;BME280;70020;45.524;10.240;2023-11-21T04:02:35;99509.59;;;17.54;47.42
80654;BME280;70020;45.524;10.240;2023-11-21T04:05:01;99510.38;;;17.47;46.97
80654;BME280;70020;45.524;10.240;2023-11-21T04:07:27;99511.38;;;17.46;46.64
80654;BME280;70020;45.524;10.240;2023-11-21T04:09:54;99513.00;;;17.47;46.65
80654;BME280;70020;45.524;10.240;2023-11-21T04:12:19;99512.66;;;17.42;46.54
80654;BME280;70020;45.524;10.240;2023-11-21T04:14:45;99503.66;;;17.44;46.64
80654;BME280;70020;45.524;10.240;2023-11-21T04:17:11;99504.00;;;17.49;46.76
80654;BME280;70020;45.524;10.240;2023-11-21T04:19:37;99501.25;;;17.59;47.27
80654;BME280;70020;45.524;10.240;2023-11-21T04:22:03;99495.50;;;17.63;46.92
80654;BME280;70020;45.524;10.240;2023-11-21T04:24:29;99497.63;;;17.76;47.30
80654;BME280;70020;45.524;10.240;2023-11-21T04:26:55;99500.09;;;17.70;47.70
80654;BME280;70020;45.524;10.240;2023-11-21T04:29:20;99505.97;;;17.72;46.92
80654;BME280;70020;45.524;10.240;2023-11-21T04:31:46;99507.75;;;17.63;46.90
80654;BME280;70020;45.524;10.240;2023-11-21T04:34:15;99497.63;;;17.68;47.12
80654;BME280;70020;45.524;10.240;2023-11-21T04:36:40;99492.09;;;17.55;47.45
80654;BME280;70020;45.524;10.240;2023-11-21T04:39:06;99495.69;;;17.46;47.69
80654;BME280;70020;45.524;10.240;2023-11-21T04:41:32;99489.47;;;17.31;47.62
80654;BME280;70020;45.524;10.240;2023-11-21T04:43:58;99492.41;;;17.28;47.26
80654;BME280;70020;45.524;10.240;2023-11-21T04:46:26;99491.59;;;17.19;46.66
80654;BME280;70020;45.524;10.240;2023-11-21T04:48:51;99493.72;;;17.24;46.39
80654;BME280;70020;45.524;10.240;2023-11-21T04:51:17;99491.41;;;17.21;45.88
80654;BME280;70020;45.524;10.240;2023-11-21T04:53:43;99496.31;;;17.16;46.58
80654;BME280;70020;45.524;10.240;2023-11-21T04:56:09;99491.91;;;17.16;46.23
80654;BME280;70020;45.524;10.240;2023-11-21T04:58:35;99492.75;;;17.25;46.29
80654;BME280;70020;45.524;10.240;2023-11-21T05:01:01;99499.13;;;17.22;45.84
80654;BME280;70020;45.524;10.240;2023-11-21T05:03:27;99493.72;;;17.24;45.64
80654;BME280;70020;45.524;10.240;2023-11-21T05:05:55;99497.66;;;17.20;45.97
80654;BME280;70020;45.524;10.240;2023-11-21T05:08:21;99496.50;;;17.22;46.19
80654;BME280;70020;45.524;10.240;2023-11-21T05:10:47;99492.41;;;17.28;45.56
80654;BME280;70020;45.524;10.240;2023-11-21T05:13:14;99490.13;;;17.33;45.26
80654;BME280;70020;45.524;10.240;2023-11-21T05:15:42;99482.44;;;17.31;45.97
80654;BME280;70020;45.524;10.240;2023-11-21T05:18:08;99483.94;;;17.18;46.74
80654;BME280;70020;45.524;10.240;2023-11-21T05:20:35;99477.38;;;17.38;46.86
80654;BME280;70020;45.524;10.240;2023-11-21T05:23:01;99483.91;;;17.34;47.35
80654;BME280;70020;45.524;10.240;2023-11-21T05:25:27;99485.22;;;17.30;47.47
80654;BME280;70020;45.524;10.240;2023-11-21T05:27:52;99485.22;;;17.38;47.40
80654;BME280;70020;45.524;10.240;2023-11-21T05:30:20;99486.84;;;17.31;47.61
80654;BME280;70020;45.524;10.240;2023-11-21T05:32:47;99491.41;;;17.21;48.53
80654;BME280;70020;45.524;10.240;2023-11-21T05:35:12;99490.47;;;17.22;48.74
80654;BME280;70020;45.524;10.240;2023-11-21T05:37:41;99485.88;;;17.08;48.24
80654;BME280;70020;45.524;10.240;2023-11-21T05:40:07;99484.59;;;17.04;48.47
80654;BME280;70020;45.524;10.240;2023-11-21T05:42:34;99480.44;;;16.85;48.90
80654;BME280;70020;45.524;10.240;2023-11-21T05:45:00;99478.81;;;16.76;49.81
80654;BME280;70020;45.524;10.240;2023-11-21T05:47:40;99480.28;;;16.78;49.14
80654;BME280;70020;45.524;10.240;2023-11-21T05:50:08;99472.50;;;16.45;50.09
80654;BME280;70020;45.524;10.240;2023-11-21T05:52:36;99471.88;;;16.51;49.96
80654;BME280;70020;45.524;10.240;2023-11-21T05:55:02;99475.88;;;16.63;49.81
80654;BME280;70020;45.524;10.240;2023-11-21T05:57:27;99478.97;;;16.66;49.90
80654;BME280;70020;45.524;10.240;2023-11-21T05:59:54;99482.22;;;16.68;49.79
80654;BME280;70020;45.524;10.240;2023-11-21T06:02:21;99476.00;;;16.61;49.40
80654;BME280;70020;45.524;10.240;2023-11-21T06:04:47;99477.81;;;16.61;49.53
80654;BME280;70020;45.524;10.240;2023-11-21T06:07:12;99477.66;;;16.62;48.99
80654;BME280;70020;45.524;10.240;2023-11-21T06:09:38;99483.53;;;16.56;49.45
80654;BME280;70020;45.524;10.240;2023-11-21T06:12:04;99484.91;;;16.34;48.95
80654;BME280;70020;45.524;10.240;2023-11-21T06:14:33;99485.72;;;16.43;49.60
80654;BME280;70020;45.524;10.240;2023-11-21T06:17:00;99486.03;;;16.32;49.75
80654;BME280;70020;45.524;10.240;2023-11-21T06:19:26;99477.31;;;16.57;49.58
80654;BME280;70020;45.524;10.240;2023-11-21T06:21:52;99478.31;;;16.64;48.82
80654;BME280;70020;45.524;10.240;2023-11-21T06:24:19;99480.75;;;16.66;48.84
80654;BME280;70020;45.524;10.240;2023-11-21T06:26:46;99479.59;;;16.68;48.60
80654;BME280;70020;45.524;10.240;2023-11-21T06:29:13;99480.94;;;16.72;48.42
80654;BME280;70020;45.524;10.240;2023-11-21T06:31:40;99474.44;;;16.84;48.16
80654;BME280;70020;45.524;10.240;2023-11-21T06:34:06;99473.91;;;16.73;48.32
80654;BME280;70020;45.524;10.240;2023-11-21T06:36:31;99468.53;;;16.82;47.96
80654;BME280;70020;45.524;10.240;2023-11-21T06:38:58;99471.50;;;16.95;47.82
80654;BME280;70020;45.524;10.240;2023-11-21T06:41:24;99474.44;;;16.92;47.57
80654;BME280;70020;45.524;10.240;2023-11-21T06:43:50;99472.81;;;17.08;47.69
80654;BME280;70020;45.524;10.240;2023-11-21T06:46:16;99476.56;;;17.05;48.10
80654;BME280;70020;45.524;10.240;2023-11-21T06:48:42;99466.41;;;16.78;47.80
80654;BME280;70020;45.524;10.240;2023-11-21T06:51:08;99457.44;;;16.88;48.57
80654;BME280;70020;45.524;10.240;2023-11-21T06:53:36;99465.75;;;16.76;48.10
80654;BME280;70020;45.524;10.240;2023-11-21T06:56:02;99465.25;;;16.80;48.33
80654;BME280;70020;45.524;10.240;2023-11-21T06:58:28;99461.03;;;16.79;48.66
80654;BME280;70020;45.524;10.240;2023-11-21T07:00:54;99458.72;;;16.68;48.41
80654;BME280;70020;45.524;10.240;2023-11-21T07:03:19;99451.88;;;16.83;48.76
80654;BME280;70020;45.524;10.240;2023-11-21T07:05:45;99449.91;;;16.85;48.73
80654;BME280;70020;45.524;10.240;2023-11-21T07:08:11;99455.78;;;16.71;48.86
80654;BME280;70020;45.524;10.240;2023-11-21T07:10:38;99458.91;;;16.83;48.81
80654;BME280;70020;45.524;10.240;2023-11-21T07:13:04;99457.94;;;16.84;49.05
80654;BME280;70020;45.524;10.240;2023-11-21T07:15:30;99458.75;;;17.00;48.16
80654;BME280;70020;45.524;10.240;2023-11-21T07:17:55;99458.91;;;16.99;48.53
80654;BME280;70020;45.524;10.240;2023-11-21T07:20:21;99459.88;;;17.06;48.42
80654;BME280;70020;45.524;10.240;2023-11-21T07:22:49;99460.06;;;17.05;48.33
80654;BME280;70020;45.524;10.240;2023-11-21T07:25:15;99454.50;;;17.08;48.41
80654;BME280;70020;45.524;10.240;2023-11-21T07:27:41;99462.19;;;17.17;48.00
80654;BME280;70020;45.524;10.240;2023-11-21T07:30:08;99458.09;;;17.39;47.83
80654;BME280;70020;45.524;10.240;2023-11-21T07:32:35;99465.63;;;17.34;48.07
80654;BME280;70020;45.524;10.240;2023-11-21T07:35:01;99452.03;;;17.38;48.84
80654;BME280;70020;45.524;10.240;2023-11-21T07:37:28;99468.06;;;17.51;48.74
80654;BME280;70020;45.524;10.240;2023-11-21T07:39:54;99469.34;;;17.39;49.10
80654;BME280;70020;45.524;10.240;2023-11-21T07:42:23;99474.06;;;17.44;48.93
80654;BME280;70020;45.524;10.240;2023-11-21T07:44:49;99466.56;;;17.49;49.08
80654;BME280;70020;45.524;10.240;2023-11-21T07:47:16;99475.75;;;17.53;48.94
80654;BME280;70020;45.524;10.240;2023-11-21T07:49:42;99480.31;;;17.59;48.89
80654;BME280;70020;45.524;10.240;2023-11-21T07:52:10;99470.50;;;17.61;48.48
80654;BME280;70020;45.524;10.240;2023-11-21T07:54:35;99468.53;;;17.63;48.44
80654;BME280;70020;45.524;10.240;2023-11-21T07:57:01;99472.13;;;17.62;48.50
80654;BME280;70020;45.524;10.240;2023-11-21T07:59:28;99477.06;;;17.65;48.55
80654;BME280;70020;45.524;10.240;2023-11-21T08:01:54;99476.03;;;17.74;48.57
80654;BME280;70020;45.524;10.240;2023-11-21T08:04:20;99469.47;;;17.78;48.66
80654;BME280;70020;45.524;10.240;2023-11-21T08:06:46;99475.69;;;17.85;47.73
80654;BME280;70020;45.524;10.240;2023-11-21T08:09:12;99471.41;;;17.92;47.46
80654;BME280;70020;45.524;10.240;2023-11-21T08:11:38;99473.31;;;17.98;46.99
80654;BME280;70020;45.524;10.240;2023-11-21T08:14:05;99473.03;;;17.93;46.79
80654;BME280;70020;45.524;10.240;2023-11-21T08:16:31;99479.25;;;17.84;46.35
80654;BME280;70020;45.524;10.240;2023-11-21T08:18:56;99473.06;;;17.77;46.87
80654;BME280;70020;45.524;10.240;2023-11-21T08:21:22;99474.03;;;17.84;46.18
80654;BME280;70020;45.524;10.240;2023-11-21T08:23:52;99469.78;;;17.83;46.30
80654;BME280;70020;45.524;10.240;2023-11-21T08:26:25;99481.34;;;18.05;45.80
80654;BME280;70020;45.524;10.240;2023-11-21T08:28:51;99489.03;;;18.06;45.56
80654;BME280;70020;45.524;10.240;2023-11-21T08:31:28;99486.00;;;18.25;45.93
80654;BME280;70020;45.524;10.240;2023-11-21T08:33:54;99486.59;;;18.05;44.81
80654;BME280;70020;45.524;10.240;2023-11-21T08:36:21;99486.50;;;18.21;45.27
80654;BME280;70020;45.524;10.240;2023-11-21T08:38:49;99480.34;;;18.45;45.51
80654;BME280;70020;45.524;10.240;2023-11-21T08:41:20;99480.28;;;18.22;45.20
80654;BME280;70020;45.524;10.240;2023-11-21T08:43:52;99481.06;;;18.30;45.21
80654;BME280;70020;45.524;10.240;2023-11-21T08:46:19;99478.66;;;18.21;45.18
80654;BME280;70020;45.524;10.240;2023-11-21T08:48:45;99473.97;;;18.47;44.78
80654;BME280;70020;45.524;10.240;2023-11-21T08:51:11;99470.09;;;18.66;45.36
80654;BME280;70020;45.524;10.240;2023-11-21T08:53:37;99463.69;;;18.68;43.88
80654;BME280;70020;45.524;10.240;2023-11-21T08:56:03;99458.75;;;18.73;44.35
80654;BME280;70020;45.524;10.240;2023-11-21T08:58:30;99446.31;;;18.36;44.69
80654;BME280;70020;45.524;10.240;2023-11-21T09:00:57;99446.75;;;18.56;44.73
80654;BME280;70020;45.524;10.240;2023-11-21T09:03:23;99446.75;;;18.56;45.27
80654;BME280;70020;45.524;10.240;2023-11-21T09:05:49;99447.22;;;18.60;45.21
80654;BME280;70020;45.524;10.240;2023-11-21T09:08:14;99436.94;;;18.81;45.69
80654;BME280;70020;45.524;10.240;2023-11-21T09:10:42;99446.81;;;18.71;44.96
80654;BME280;70020;45.524;10.240;2023-11-21T09:13:12;99439.53;;;19.03;45.44
80654;BME280;70020;45.524;10.240;2023-11-21T09:15:38;99440.63;;;19.09;44.53
80654;BME280;70020;45.524;10.240;2023-11-21T09:18:05;99442.72;;;19.14;44.77
80654;BME280;70020;45.524;10.240;2023-11-21T09:20:30;99440.78;;;19.08;45.47
80654;BME280;70020;45.524;10.240;2023-11-21T09:22:57;99442.97;;;19.04;44.99
80654;BME280;70020;45.524;10.240;2023-11-21T09:25:22;99441.72;;;19.15;44.73
80654;BME280;70020;45.524;10.240;2023-11-21T09:27:47;99442.75;;;19.28;44.28
80654;BME280;70020;45.524;10.240;2023-11-21T09:30:16;99442.25;;;19.47;43.79
80654;BME280;70020;45.524;10.240;2023-11-21T09:32:42;99442.38;;;19.31;44.39
80654;BME280;70020;45.524;10.240;2023-11-21T09:35:10;99441.13;;;19.27;44.86
80654;BME280;70020;45.524;10.240;2023-11-21T09:37:37;99439.00;;;19.45;45.13
80654;BME280;70020;45.524;10.240;2023-11-21T09:40:04;99434.56;;;19.46;44.25
80654;BME280;70020;45.524;10.240;2023-11-21T09:42:40;99430.09;;;19.32;45.05
80654;BME280;70020;45.524;10.240;2023-11-21T09:47:38;99426.16;;;19.13;45.07
80654;BME280;70020;45.524;10.240;2023-11-21T09:50:05;99423.34;;;19.15;44.58
80654;BME280;70020;45.524;10.240;2023-11-21T09:52:47;99414.66;;;18.99;44.42
80654;BME280;70020;45.524;10.240;2023-11-21T09:55:16;99417.13;;;18.93;45.48
80654;BME280;70020;45.524;10.240;2023-11-21T09:57:44;99418.97;;;18.92;44.66
80654;BME280;70020;45.524;10.240;2023-11-21T10:00:10;99410.97;;;19.09;45.77
80654;BME280;70020;45.524;10.240;2023-11-21T10:02:38;99415.19;;;19.10;45.08
80654;BME280;70020;45.524;10.240;2023-11-21T10:05:06;99419.13;;;19.14;45.70
80654;BME280;70020;45.524;10.240;2023-11-21T10:07:32;99406.59;;;19.01;45.80
80654;BME280;70020;45.524;10.240;2023-11-21T10:10:00;99408.84;;;18.89;45.61
80654;BME280;70020;45.524;10.240;2023-11-21T10:12:28;99417.81;;;18.95;45.88
80654;BME280;70020;45.524;10.240;2023-11-21T10:14:54;99398.00;;;18.92;45.81
80654;BME280;70020;45.524;10.240;2023-11-21T10:17:23;99390.47;;;18.89;46.26
80654;BME280;70020;45.524;10.240;2023-11-21T10:19:51;99387.25;;;19.02;46.42
80654;BME280;70020;45.524;10.240;2023-11-21T10:22:19;99384.50;;;19.18;46.97
80654;BME280;70020;45.524;10.240;2023-11-21T10:24:46;99383.56;;;18.74;46.22
80654;BME280;70020;45.524;10.240;2023-11-21T10:27:11;99380.19;;;18.65;45.59
80654;BME280;70020;45.524;10.240;2023-11-21T10:29:39;99382.50;;;18.83;46.37
80654;BME280;70020;45.524;10.240;2023-11-21T10:32:05;99378.53;;;18.87;45.65
80654;BME280;70020;45.524;10.240;2023-11-21T10:34:32;99380.44;;;18.93;45.20
80654;BME280;70020;45.524;10.240;2023-11-21T10:37:11;99375.69;;;19.11;45.14
80654;BME280;70020;45.524;10.240;2023-11-21T10:39:37;99373.00;;;19.05;44.37
80654;BME280;70020;45.524;10.240;2023-11-21T10:42:07;99374.94;;;19.02;45.45
80654;BME280;70020;45.524;10.240;2023-11-21T10:44:34;99366.81;;;19.12;46.21
80654;BME280;70020;45.524;10.240;2023-11-21T10:46:59;99363.25;;;19.28;45.66
80654;BME280;70020;45.524;10.240;2023-11-21T10:49:26;99358.44;;;19.31;44.98
80654;BME280;70020;45.524;10.240;2023-11-21T10:52:12;99359.84;;;19.42;45.58
80654;BME280;70020;45.524;10.240;2023-11-21T10:54:42;99361.56;;;19.49;44.76
80654;BME280;70020;45.524;10.240;2023-11-21T10:57:08;99373.03;;;19.48;44.33
80654;BME280;70020;45.524;10.240;2023-11-21T10:59:35;99367.72;;;19.42;43.44
80654;BME280;70020;45.524;10.240;2023-11-21T11:02:16;99376.38;;;19.57;44.28
80654;BME280;70020;45.524;10.240;2023-11-21T11:04:48;99381.34;;;19.66;43.67
80654;BME280;70020;45.524;10.240;2023-11-21T11:07:14;99379.38;;;19.54;43.40
80654;BME280;70020;45.524;10.240;2023-11-21T11:09:41;99371.13;;;19.57;43.80
80654;BME280;70020;45.524;10.240;2023-11-21T11:12:10;99374.78;;;19.71;43.89
80654;BME280;70020;45.524;10.240;2023-11-21T11:14:36;99376.09;;;19.66;44.00
80654;BME280;70020;45.524;10.240;2023-11-21T11:17:02;99373.13;;;19.69;44.64
80654;BME280;70020;45.524;10.240;2023-11-21T11:19:30;99373.13;;;19.84;44.06
80654;BME280;70020;45.524;10.240;2023-11-21T11:24:44;99376.16;;;19.88;43.97
80654;BME280;70020;45.524;10.240;2023-11-21T11:36:13;99394.13;;;19.84;43.83
80654;BME280;70020;45.524;10.240;2023-11-21T11:38:45;99393.38;;;19.90;44.19
80654;BME280;70020;45.524;10.240;2023-11-21T11:41:11;99375.38;;;19.87;44.58
80654;BME280;70020;45.524;10.240;2023-11-21T11:43:38;99376.16;;;19.88;44.58
80654;BME280;70020;45.524;10.240;2023-11-21T11:46:11;99380.91;;;19.78;44.92
80654;BME280;70020;45.524;10.240;2023-11-21T11:48:40;99378.09;;;19.79;44.77
80654;BME280;70020;45.524;10.240;2023-11-21T11:51:13;99381.28;;;19.75;44.64
80654;BME280;70020;45.524;10.240;2023-11-21T11:53:47;99379.06;;;19.78;45.29
80654;BME280;70020;45.524;10.240;2023-11-21T11:56:30;99377.91;;;19.81;45.87
80654;BME280;70020;45.524;10.240;2023-11-21T11:58:59;99371.47;;;19.83;45.59
80654;BME280;70020;45.524;10.240;2023-11-21T12:01:26;99372.56;;;19.89;45.53
80654;BME280;70020;45.524;10.240;2023-11-21T12:06:42;99379.53;;;19.82;45.34
80654;BME280;70020;45.524;10.240;2023-11-21T12:09:21;99372.19;;;19.92;45.07
80654;BME280;70020;45.524;10.240;2023-11-21T12:11:48;99375.38;;;19.87;45.16
80654;BME280;70020;45.524;10.240;2023-11-21T12:14:15;99379.53;;;19.82;45.64
80654;BME280;70020;45.524;10.240;2023-11-21T12:16:44;99373.94;;;19.85;45.81
80654;BME280;70020;45.524;10.240;2023-11-21T12:19:11;99378.00;;;19.87;45.57
80654;BME280;70020;45.524;10.240;2023-11-21T12:21:37;99383.41;;;19.86;44.91
80654;BME280;70020;45.524;10.240;2023-11-21T12:24:03;99382.78;;;19.84;45.10
80654;BME280;70020;45.524;10.240;2023-11-21T12:26:29;99383.88;;;19.89;45.55
80654;BME280;70020;45.524;10.240;2023-11-21T12:28:55;99388.78;;;19.92;45.28
80654;BME280;70020;45.524;10.240;2023-11-21T12:31:23;99383.13;;;19.95;45.45
80654;BME280;70020;45.524;10.240;2023-11-21T12:33:50;99390.91;;;20.03;45.40
80654;BME280;70020;45.524;10.240;2023-11-21T12:36:19;99385.31;;;20.06;45.21
80654;BME280;70020;45.524;10.240;2023-11-21T12:38:45;99377.78;;;20.03;45.12
80654;BME280;70020;45.524;10.240;2023-11-21T12:41:11;99369.44;;;20.00;45.66
80654;BME280;70020;45.524;10.240;2023-11-21T12:43:37;99375.31;;;20.02;45.61
80654;BME280;70020;45.524;10.240;2023-11-21T12:46:09;99370.06;;;20.02;46.13
80654;BME280;70020;45.524;10.240;2023-11-21T12:48:37;99372.34;;;20.05;45.68
80654;BME280;70020;45.524;10.240;2023-11-21T12:51:10;99361.22;;;20.03;45.43
80654;BME280;70020;45.524;10.240;2023-11-21T12:53:37;99346.28;;;20.03;45.65
80654;BME280;70020;45.524;10.240;2023-11-21T12:56:21;99349.16;;;20.08;45.39
80654;BME280;70020;45.524;10.240;2023-11-21T12:58:48;99352.81;;;19.93;44.93
80654;BME280;70020;45.524;10.240;2023-11-21T13:01:16;99347.47;;;20.01;45.34
80654;BME280;70020;45.524;10.240;2023-11-21T13:03:46;99355.75;;;20.04;46.08
80654;BME280;70020;45.524;10.240;2023-11-21T13:06:14;99360.47;;;20.09;46.35